Terminal Aerodrome Forecast
Issued by NWS

Home | Current Version | Previous Version | Text Only | Print | Product List | Glossary On
Versions: 1 2 3 4 5 6 7 8 9 10 11 12 13 14 15 16 17 18 19 20 21 22 23 24 25 26 27 28 29 30 31 32 33
000
FTUS45 KBOU 292337
TAFAPA
TAF
KAPA 292337Z 3000/3024 02010KT P6SM VCSH SCT100 BKN180
     FM300200 22009KT P6SM FEW080 SCT150
     FM300500 20010KT P6SM FEW110 SCT200
     FM301700 22006KT P6SM FEW090 SCT150 BKN200
     FM302100 12008KT P6SM SCT080 BKN120 PROB30 3021/3024 VRB20G30KT
      -TSRA BKN070CB=

USA.gov is the U.S. government's official web portal to all federal, state and local government web resources and services.